sensor_id;sensor_type;location;lat;lon;timestamp;temperature;humidity
15983;DHT22;14442;50.196;8.096;2022-07-03T00:01:50;21.10;62.60
15983;DHT22;14442;50.196;8.096;2022-07-03T00:04:17;21.10;62.50
15983;DHT22;14442;50.196;8.096;2022-07-03T00:06:46;21.10;62.30
15983;DHT22;14442;50.196;8.096;2022-07-03T00:09:14;21.10;62.10
15983;DHT22;14442;50.196;8.096;2022-07-03T00:11:42;21.10;62.10
15983;DHT22;14442;50.196;8.096;2022-07-03T00:14:08;21.10;61.90
15983;DHT22;14442;50.196;8.096;2022-07-03T00:16:35;21.10;61.80
15983;DHT22;14442;50.196;8.096;2022-07-03T00:19:02;21.00;61.50
15983;DHT22;14442;50.196;8.096;2022-07-03T00:21:31;21.00;61.40
15983;DHT22;14442;50.196;8.096;2022-07-03T00:24:02;21.00;61.50
15983;DHT22;14442;50.196;8.096;2022-07-03T00:26:33;21.00;61.20
15983;DHT22;14442;50.196;8.096;2022-07-03T00:29:01;21.00;61.20
15983;DHT22;14442;50.196;8.096;2022-07-03T00:31:29;21.00;61.10
15983;DHT22;14442;50.196;8.096;2022-07-03T00:33:57;20.90;60.80
15983;DHT22;14442;50.196;8.096;2022-07-03T00:36:26;20.90;60.80
15983;DHT22;14442;50.196;8.096;2022-07-03T00:38:53;20.90;60.70
15983;DHT22;14442;50.196;8.096;2022-07-03T00:41:27;20.90;60.70
15983;DHT22;14442;50.196;8.096;2022-07-03T00:43:56;20.90;60.60
15983;DHT22;14442;50.196;8.096;2022-07-03T00:46:24;20.90;60.50
15983;DHT22;14442;50.196;8.096;2022-07-03T00:48:52;20.90;60.40
15983;DHT22;14442;50.196;8.096;2022-07-03T00:51:21;20.90;60.50
15983;DHT22;14442;50.196;8.096;2022-07-03T00:53:51;20.90;60.40
15983;DHT22;14442;50.196;8.096;2022-07-03T00:56:23;20.80;60.20
15983;DHT22;14442;50.196;8.096;2022-07-03T00:58:53;20.80;60.00
15983;DHT22;14442;50.196;8.096;2022-07-03T01:01:25;20.80;60.10
15983;DHT22;14442;50.196;8.096;2022-07-03T01:04:03;20.80;60.00
15983;DHT22;14442;50.196;8.096;2022-07-03T01:06:34;20.80;60.30
15983;DHT22;14442;50.196;8.096;2022-07-03T01:09:04;20.80;60.30
15983;DHT22;14442;50.196;8.096;2022-07-03T01:11:36;20.80;60.40
15983;DHT22;14442;50.196;8.096;2022-07-03T01:14:14;20.80;60.40
15983;DHT22;14442;50.196;8.096;2022-07-03T01:16:51;20.90;60.50
15983;DHT22;14442;50.196;8.096;2022-07-03T01:19:34;20.90;60.60
15983;DHT22;14442;50.196;8.096;2022-07-03T01:22:17;20.80;60.60
15983;DHT22;14442;50.196;8.096;2022-07-03T01:25:02;20.90;60.80
15983;DHT22;14442;50.196;8.096;2022-07-03T01:27:34;20.90;61.00
15983;DHT22;14442;50.196;8.096;2022-07-03T01:30:04;20.90;61.00
15983;DHT22;14442;50.196;8.096;2022-07-03T01:32:38;20.90;61.10
15983;DHT22;14442;50.196;8.096;2022-07-03T01:35:08;20.90;61.20
15983;DHT22;14442;50.196;8.096;2022-07-03T01:37:39;20.90;61.30
15983;DHT22;14442;50.196;8.096;2022-07-03T01:40:07;20.90;61.30
15983;DHT22;14442;50.196;8.096;2022-07-03T01:42:36;20.90;61.30
15983;DHT22;14442;50.196;8.096;2022-07-03T01:45:08;20.90;61.30
15983;DHT22;14442;50.196;8.096;2022-07-03T01:47:37;20.90;61.40
15983;DHT22;14442;50.196;8.096;2022-07-03T01:50:07;20.90;61.40
15983;DHT22;14442;50.196;8.096;2022-07-03T01:52:37;20.90;61.50
15983;DHT22;14442;50.196;8.096;2022-07-03T01:55:08;20.90;61.50
15983;DHT22;14442;50.196;8.096;2022-07-03T01:57:41;20.90;61.50
15983;DHT22;14442;50.196;8.096;2022-07-03T02:00:09;20.90;61.60
15983;DHT22;14442;50.196;8.096;2022-07-03T02:02:42;20.90;61.60
15983;DHT22;14442;50.196;8.096;2022-07-03T02:05:13;20.80;61.60
15983;DHT22;14442;50.196;8.096;2022-07-03T02:07:48;20.90;61.70
15983;DHT22;14442;50.196;8.096;2022-07-03T02:10:17;20.90;61.70
15983;DHT22;14442;50.196;8.096;2022-07-03T02:12:48;20.80;61.60
15983;DHT22;14442;50.196;8.096;2022-07-03T02:15:18;20.80;61.70
15983;DHT22;14442;50.196;8.096;2022-07-03T02:17:47;20.80;61.70
15983;DHT22;14442;50.196;8.096;2022-07-03T02:20:15;20.80;61.80
15983;DHT22;14442;50.196;8.096;2022-07-03T02:22:44;20.80;61.80
15983;DHT22;14442;50.196;8.096;2022-07-03T02:25:22;20.80;61.80
15983;DHT22;14442;50.196;8.096;2022-07-03T02:27:55;20.80;61.90
15983;DHT22;14442;50.196;8.096;2022-07-03T02:30:23;20.80;61.80
15983;DHT22;14442;50.196;8.096;2022-07-03T02:32:51;20.80;61.90
15983;DHT22;14442;50.196;8.096;2022-07-03T02:35:22;20.80;61.90
15983;DHT22;14442;50.196;8.096;2022-07-03T02:37:55;20.80;62.60
15983;DHT22;14442;50.196;8.096;2022-07-03T02:40:27;20.80;61.90
15983;DHT22;14442;50.196;8.096;2022-07-03T02:43:14;20.80;61.90
15983;DHT22;14442;50.196;8.096;2022-07-03T02:45:47;20.80;61.90
15983;DHT22;14442;50.196;8.096;2022-07-03T02:48:21;20.80;61.90
15983;DHT22;14442;50.196;8.096;2022-07-03T02:50:53;20.80;62.00
15983;DHT22;14442;50.196;8.096;2022-07-03T02:53:26;20.80;62.00
15983;DHT22;14442;50.196;8.096;2022-07-03T02:55:58;20.80;62.00
15983;DHT22;14442;50.196;8.096;2022-07-03T02:58:44;20.80;62.00
15983;DHT22;14442;50.196;8.096;2022-07-03T03:01:19;20.80;62.00
15983;DHT22;14442;50.196;8.096;2022-07-03T03:03:52;20.80;62.00
15983;DHT22;14442;50.196;8.096;2022-07-03T03:06:21;20.80;62.10
15983;DHT22;14442;50.196;8.096;2022-07-03T03:09:00;20.80;62.10
15983;DHT22;14442;50.196;8.096;2022-07-03T03:11:32;20.70;62.00
15983;DHT22;14442;50.196;8.096;2022-07-03T03:14:10;20.70;62.00
15983;DHT22;14442;50.196;8.096;2022-07-03T03:16:42;20.80;62.10
15983;DHT22;14442;50.196;8.096;2022-07-03T03:19:12;20.70;62.10
15983;DHT22;14442;50.196;8.096;2022-07-03T03:21:45;20.70;62.10
15983;DHT22;14442;50.196;8.096;2022-07-03T03:24:14;20.70;62.10
15983;DHT22;14442;50.196;8.096;2022-07-03T03:26:40;20.70;62.10
15983;DHT22;14442;50.196;8.096;2022-07-03T03:29:09;20.80;62.20
15983;DHT22;14442;50.196;8.096;2022-07-03T03:31:36;20.70;62.10
15983;DHT22;14442;50.196;8.096;2022-07-03T03:34:03;20.80;62.10
15983;DHT22;14442;50.196;8.096;2022-07-03T03:36:31;20.80;62.20
15983;DHT22;14442;50.196;8.096;2022-07-03T03:38:58;20.70;62.10
15983;DHT22;14442;50.196;8.096;2022-07-03T03:41:25;20.70;62.10
15983;DHT22;14442;50.196;8.096;2022-07-03T03:43:52;20.70;62.10
15983;DHT22;14442;50.196;8.096;2022-07-03T03:46:20;20.70;62.10
15983;DHT22;14442;50.196;8.096;2022-07-03T03:48:47;20.70;62.10
15983;DHT22;14442;50.196;8.096;2022-07-03T03:51:14;20.70;62.10
15983;DHT22;14442;50.196;8.096;2022-07-03T03:53:41;20.70;62.20
15983;DHT22;14442;50.196;8.096;2022-07-03T03:56:11;20.70;62.10
15983;DHT22;14442;50.196;8.096;2022-07-03T03:58:41;20.70;62.10
15983;DHT22;14442;50.196;8.096;2022-07-03T04:01:09;20.70;62.10
15983;DHT22;14442;50.196;8.096;2022-07-03T04:03:38;20.70;62.10
15983;DHT22;14442;50.196;8.096;2022-07-03T04:06:05;20.70;62.10
15983;DHT22;14442;50.196;8.096;2022-07-03T04:08:32;20.70;62.10
15983;DHT22;14442;50.196;8.096;2022-07-03T04:10:59;20.70;62.20
15983;DHT22;14442;50.196;8.096;2022-07-03T04:13:26;20.70;62.10
15983;DHT22;14442;50.196;8.096;2022-07-03T04:15:53;20.70;62.10
15983;DHT22;14442;50.196;8.096;2022-07-03T04:18:21;20.70;62.10
15983;DHT22;14442;50.196;8.096;2022-07-03T04:20:49;20.70;62.10
15983;DHT22;14442;50.196;8.096;2022-07-03T04:23:16;20.70;62.20
15983;DHT22;14442;50.196;8.096;2022-07-03T04:25:42;20.70;62.10
15983;DHT22;14442;50.196;8.096;2022-07-03T04:28:09;20.70;62.10
15983;DHT22;14442;50.196;8.096;2022-07-03T04:30:36;20.70;62.10
15983;DHT22;14442;50.196;8.096;2022-07-03T04:33:03;20.70;62.10
15983;DHT22;14442;50.196;8.096;2022-07-03T04:35:30;20.70;62.10
15983;DHT22;14442;50.196;8.096;2022-07-03T04:37:58;20.70;62.10
15983;DHT22;14442;50.196;8.096;2022-07-03T04:40:24;20.70;62.10
15983;DHT22;14442;50.196;8.096;2022-07-03T04:42:51;20.70;62.10
15983;DHT22;14442;50.196;8.096;2022-07-03T04:45:18;20.70;62.10
15983;DHT22;14442;50.196;8.096;2022-07-03T04:47:45;20.70;62.10
15983;DHT22;14442;50.196;8.096;2022-07-03T04:50:12;20.70;62.10
15983;DHT22;14442;50.196;8.096;2022-07-03T04:52:38;20.70;62.10
15983;DHT22;14442;50.196;8.096;2022-07-03T04:55:07;20.70;62.10
15983;DHT22;14442;50.196;8.096;2022-07-03T04:57:35;20.70;62.10
15983;DHT22;14442;50.196;8.096;2022-07-03T05:00:03;20.70;62.10
15983;DHT22;14442;50.196;8.096;2022-07-03T05:02:29;20.70;62.10
15983;DHT22;14442;50.196;8.096;2022-07-03T05:04:56;20.70;62.10
15983;DHT22;14442;50.196;8.096;2022-07-03T05:07:23;20.70;62.10
15983;DHT22;14442;50.196;8.096;2022-07-03T05:09:50;20.70;62.10
15983;DHT22;14442;50.196;8.096;2022-07-03T05:12:18;20.70;62.10
15983;DHT22;14442;50.196;8.096;2022-07-03T05:14:45;20.70;62.10
15983;DHT22;14442;50.196;8.096;2022-07-03T05:17:11;20.80;62.20
15983;DHT22;14442;50.196;8.096;2022-07-03T05:19:38;20.70;62.10
15983;DHT22;14442;50.196;8.096;2022-07-03T05:22:05;20.70;62.10
15983;DHT22;14442;50.196;8.096;2022-07-03T05:24:31;20.70;62.10
15983;DHT22;14442;50.196;8.096;2022-07-03T05:26:58;20.70;62.10
15983;DHT22;14442;50.196;8.096;2022-07-03T05:29:26;20.70;62.10
15983;DHT22;14442;50.196;8.096;2022-07-03T05:31:53;20.70;62.10
15983;DHT22;14442;50.196;8.096;2022-07-03T05:34:20;20.70;62.10
15983;DHT22;14442;50.196;8.096;2022-07-03T05:36:46;20.70;62.10
15983;DHT22;14442;50.196;8.096;2022-07-03T05:39:13;20.70;62.10
15983;DHT22;14442;50.196;8.096;2022-07-03T05:41:56;20.70;62.10
15983;DHT22;14442;50.196;8.096;2022-07-03T05:44:23;20.70;62.20
15983;DHT22;14442;50.196;8.096;2022-07-03T05:46:51;20.70;62.20
15983;DHT22;14442;50.196;8.096;2022-07-03T05:49:18;20.70;62.20
15983;DHT22;14442;50.196;8.096;2022-07-03T05:51:45;20.70;62.20
15983;DHT22;14442;50.196;8.096;2022-07-03T05:54:11;20.70;62.20
15983;DHT22;14442;50.196;8.096;2022-07-03T05:56:38;20.70;62.20
15983;DHT22;14442;50.196;8.096;2022-07-03T05:59:05;20.70;62.90
15983;DHT22;14442;50.196;8.096;2022-07-03T06:01:31;20.70;62.10
15983;DHT22;14442;50.196;8.096;2022-07-03T06:03:59;20.80;62.30
15983;DHT22;14442;50.196;8.096;2022-07-03T06:06:26;20.80;62.30
15983;DHT22;14442;50.196;8.096;2022-07-03T06:08:53;20.70;62.20
15983;DHT22;14442;50.196;8.096;2022-07-03T06:11:20;20.80;62.30
15983;DHT22;14442;50.196;8.096;2022-07-03T06:13:46;20.80;62.30
15983;DHT22;14442;50.196;8.096;2022-07-03T06:16:13;20.70;62.20
15983;DHT22;14442;50.196;8.096;2022-07-03T06:18:40;20.70;62.20
15983;DHT22;14442;50.196;8.096;2022-07-03T06:21:08;20.70;62.20
15983;DHT22;14442;50.196;8.096;2022-07-03T06:23:35;20.80;62.30
15983;DHT22;14442;50.196;8.096;2022-07-03T06:26:02;20.80;62.30
15983;DHT22;14442;50.196;8.096;2022-07-03T06:28:28;20.80;62.30
15983;DHT22;14442;50.196;8.096;2022-07-03T06:30:55;20.80;62.30
15983;DHT22;14442;50.196;8.096;2022-07-03T06:33:22;20.80;62.30
15983;DHT22;14442;50.196;8.096;2022-07-03T06:35:49;20.80;62.30
15983;DHT22;14442;50.196;8.096;2022-07-03T06:38:17;20.80;62.30
15983;DHT22;14442;50.196;8.096;2022-07-03T06:40:44;20.80;62.30
15983;DHT22;14442;50.196;8.096;2022-07-03T06:43:11;20.80;62.30
15983;DHT22;14442;50.196;8.096;2022-07-03T06:45:37;20.80;62.30
15983;DHT22;14442;50.196;8.096;2022-07-03T06:48:05;20.80;62.30
15983;DHT22;14442;50.196;8.096;2022-07-03T06:50:31;20.80;62.40
15983;DHT22;14442;50.196;8.096;2022-07-03T06:52:58;20.80;62.30
15983;DHT22;14442;50.196;8.096;2022-07-03T06:55:27;20.80;62.30
15983;DHT22;14442;50.196;8.096;2022-07-03T06:57:54;20.80;62.40
15983;DHT22;14442;50.196;8.096;2022-07-03T07:00:20;20.90;62.70
15983;DHT22;14442;50.196;8.096;2022-07-03T07:02:47;20.90;62.80
15983;DHT22;14442;50.196;8.096;2022-07-03T07:05:14;20.90;62.70
15983;DHT22;14442;50.196;8.096;2022-07-03T07:07:40;21.00;63.00
15983;DHT22;14442;50.196;8.096;2022-07-03T07:10:08;21.00;63.00
15983;DHT22;14442;50.196;8.096;2022-07-03T07:12:36;21.00;63.10
15983;DHT22;14442;50.196;8.096;2022-07-03T07:15:03;21.00;63.40
15983;DHT22;14442;50.196;8.096;2022-07-03T07:17:30;21.00;63.70
15983;DHT22;14442;50.196;8.096;2022-07-03T07:19:57;21.00;63.90
15983;DHT22;14442;50.196;8.096;2022-07-03T07:22:24;21.00;64.00
15983;DHT22;14442;50.196;8.096;2022-07-03T07:24:51;21.00;64.30
15983;DHT22;14442;50.196;8.096;2022-07-03T07:27:18;21.10;64.30
15983;DHT22;14442;50.196;8.096;2022-07-03T07:29:46;21.20;64.90
15983;DHT22;14442;50.196;8.096;2022-07-03T07:32:13;21.20;64.70
15983;DHT22;14442;50.196;8.096;2022-07-03T07:34:39;21.20;65.00
15983;DHT22;14442;50.196;8.096;2022-07-03T07:37:06;21.20;64.80
15983;DHT22;14442;50.196;8.096;2022-07-03T07:39:33;21.30;64.60
15983;DHT22;14442;50.196;8.096;2022-07-03T07:41:59;21.30;64.60
15983;DHT22;14442;50.196;8.096;2022-07-03T07:44:26;21.30;64.70
15983;DHT22;14442;50.196;8.096;2022-07-03T07:46:54;21.30;64.60
15983;DHT22;14442;50.196;8.096;2022-07-03T07:49:21;21.30;64.50
15983;DHT22;14442;50.196;8.096;2022-07-03T07:51:48;21.30;64.50
15983;DHT22;14442;50.196;8.096;2022-07-03T07:54:14;21.30;64.50
15983;DHT22;14442;50.196;8.096;2022-07-03T07:56:41;21.30;64.50
15983;DHT22;14442;50.196;8.096;2022-07-03T07:59:08;21.30;64.30
15983;DHT22;14442;50.196;8.096;2022-07-03T08:01:34;21.30;64.30
15983;DHT22;14442;50.196;8.096;2022-07-03T08:04:20;21.30;64.30
15983;DHT22;14442;50.196;8.096;2022-07-03T08:07:04;21.30;64.20
15983;DHT22;14442;50.196;8.096;2022-07-03T08:09:30;21.30;64.10
15983;DHT22;14442;50.196;8.096;2022-07-03T08:11:57;21.30;64.00
15983;DHT22;14442;50.196;8.096;2022-07-03T08:14:24;21.30;63.80
15983;DHT22;14442;50.196;8.096;2022-07-03T08:16:51;21.30;63.80
15983;DHT22;14442;50.196;8.096;2022-07-03T08:19:19;21.30;63.60
15983;DHT22;14442;50.196;8.096;2022-07-03T08:21:46;21.30;63.70
15983;DHT22;14442;50.196;8.096;2022-07-03T08:24:12;21.30;63.80
15983;DHT22;14442;50.196;8.096;2022-07-03T08:26:41;21.30;63.60
15983;DHT22;14442;50.196;8.096;2022-07-03T08:29:08;21.30;63.60
15983;DHT22;14442;50.196;8.096;2022-07-03T08:31:35;21.30;63.40
15983;DHT22;14442;50.196;8.096;2022-07-03T08:34:01;21.30;63.40
15983;DHT22;14442;50.196;8.096;2022-07-03T08:36:29;21.30;63.30
15983;DHT22;14442;50.196;8.096;2022-07-03T08:38:56;21.30;63.30
15983;DHT22;14442;50.196;8.096;2022-07-03T08:41:26;21.30;63.30
15983;DHT22;14442;50.196;8.096;2022-07-03T08:43:53;21.30;64.00
15983;DHT22;14442;50.196;8.096;2022-07-03T08:46:21;21.30;63.20
15983;DHT22;14442;50.196;8.096;2022-07-03T08:48:50;21.30;63.10
15983;DHT22;14442;50.196;8.096;2022-07-03T08:51:19;21.30;63.20
15983;DHT22;14442;50.196;8.096;2022-07-03T08:53:48;21.40;63.20
15983;DHT22;14442;50.196;8.096;2022-07-03T08:56:17;21.40;63.10
15983;DHT22;14442;50.196;8.096;2022-07-03T08:58:43;21.40;63.00
15983;DHT22;14442;50.196;8.096;2022-07-03T09:01:10;21.40;63.00
15983;DHT22;14442;50.196;8.096;2022-07-03T09:03:42;21.40;63.10
15983;DHT22;14442;50.196;8.096;2022-07-03T09:06:09;21.40;63.00
15983;DHT22;14442;50.196;8.096;2022-07-03T09:08:36;21.40;63.20
15983;DHT22;14442;50.196;8.096;2022-07-03T09:11:05;21.40;63.20
15983;DHT22;14442;50.196;8.096;2022-07-03T09:13:32;21.40;63.20
15983;DHT22;14442;50.196;8.096;2022-07-03T09:15:58;21.40;63.10
15983;DHT22;14442;50.196;8.096;2022-07-03T09:18:38;21.40;63.20
15983;DHT22;14442;50.196;8.096;2022-07-03T09:21:05;21.40;63.10
15983;DHT22;14442;50.196;8.096;2022-07-03T09:23:36;21.40;63.20
15983;DHT22;14442;50.196;8.096;2022-07-03T09:26:05;21.40;63.10
15983;DHT22;14442;50.196;8.096;2022-07-03T09:28:43;21.40;63.00
15983;DHT22;14442;50.196;8.096;2022-07-03T09:31:11;21.40;63.10
15983;DHT22;14442;50.196;8.096;2022-07-03T09:33:49;21.40;63.20
15983;DHT22;14442;50.196;8.096;2022-07-03T09:36:16;21.40;63.20
15983;DHT22;14442;50.196;8.096;2022-07-03T09:38:43;21.50;63.30
15983;DHT22;14442;50.196;8.096;2022-07-03T09:41:12;21.40;63.20
15983;DHT22;14442;50.196;8.096;2022-07-03T09:43:41;21.50;63.20
15983;DHT22;14442;50.196;8.096;2022-07-03T09:46:09;21.50;63.30
15983;DHT22;14442;50.196;8.096;2022-07-03T09:48:37;21.50;63.30
15983;DHT22;14442;50.196;8.096;2022-07-03T09:51:17;21.50;63.30
15983;DHT22;14442;50.196;8.096;2022-07-03T09:53:55;21.50;63.20
15983;DHT22;14442;50.196;8.096;2022-07-03T09:56:25;21.50;63.00
15983;DHT22;14442;50.196;8.096;2022-07-03T09:59:03;21.50;63.00
15983;DHT22;14442;50.196;8.096;2022-07-03T10:01:30;21.60;63.00
15983;DHT22;14442;50.196;8.096;2022-07-03T10:04:12;21.50;62.90
15983;DHT22;14442;50.196;8.096;2022-07-03T10:06:50;21.50;62.80
15983;DHT22;14442;50.196;8.096;2022-07-03T10:09:18;21.60;63.10
15983;DHT22;14442;50.196;8.096;2022-07-03T10:11:47;21.60;63.10
15983;DHT22;14442;50.196;8.096;2022-07-03T10:14:15;21.60;63.10
15983;DHT22;14442;50.196;8.096;2022-07-03T10:16:42;21.60;62.90
15983;DHT22;14442;50.196;8.096;2022-07-03T10:19:12;21.60;62.70
15983;DHT22;14442;50.196;8.096;2022-07-03T10:21:41;21.60;62.90
15983;DHT22;14442;50.196;8.096;2022-07-03T10:24:08;21.60;63.60
15983;DHT22;14442;50.196;8.096;2022-07-03T10:26:36;21.60;63.00
15983;DHT22;14442;50.196;8.096;2022-07-03T10:29:06;21.60;63.00
15983;DHT22;14442;50.196;8.096;2022-07-03T10:31:33;21.60;63.00
15983;DHT22;14442;50.196;8.096;2022-07-03T10:34:01;21.60;63.00
15983;DHT22;14442;50.196;8.096;2022-07-03T10:36:28;21.60;62.90
15983;DHT22;14442;50.196;8.096;2022-07-03T10:38:57;21.60;62.90
15983;DHT22;14442;50.196;8.096;2022-07-03T10:41:30;21.60;62.90
15983;DHT22;14442;50.196;8.096;2022-07-03T10:44:19;21.60;63.00
15983;DHT22;14442;50.196;8.096;2022-07-03T10:47:04;21.60;63.00
15983;DHT22;14442;50.196;8.096;2022-07-03T10:49:30;21.60;63.00
15983;DHT22;14442;50.196;8.096;2022-07-03T10:51:58;21.60;63.10
15983;DHT22;14442;50.196;8.096;2022-07-03T10:54:27;21.70;63.20
15983;DHT22;14442;50.196;8.096;2022-07-03T10:57:14;21.70;63.40
15983;DHT22;14442;50.196;8.096;2022-07-03T11:00:00;21.70;63.20
15983;DHT22;14442;50.196;8.096;2022-07-03T11:02:30;21.70;63.20
15983;DHT22;14442;50.196;8.096;2022-07-03T11:08:08;21.70;63.20
15983;DHT22;14442;50.196;8.096;2022-07-03T11:10:36;21.80;63.50
15983;DHT22;14442;50.196;8.096;2022-07-03T11:13:08;21.80;63.50
15983;DHT22;14442;50.196;8.096;2022-07-03T11:15:40;21.80;63.60
15983;DHT22;14442;50.196;8.096;2022-07-03T11:18:14;21.80;63.60
15983;DHT22;14442;50.196;8.096;2022-07-03T11:24:12;21.80;63.80
15983;DHT22;14442;50.196;8.096;2022-07-03T11:26:40;21.80;63.50
15983;DHT22;14442;50.196;8.096;2022-07-03T11:29:07;21.80;63.50
15983;DHT22;14442;50.196;8.096;2022-07-03T11:31:52;21.90;63.70
15983;DHT22;14442;50.196;8.096;2022-07-03T11:34:19;21.90;63.70
15983;DHT22;14442;50.196;8.096;2022-07-03T11:36:46;21.90;63.80
15983;DHT22;14442;50.196;8.096;2022-07-03T11:39:13;21.90;63.80
15983;DHT22;14442;50.196;8.096;2022-07-03T11:41:44;22.00;63.90
15983;DHT22;14442;50.196;8.096;2022-07-03T11:44:19;21.90;63.80
15983;DHT22;14442;50.196;8.096;2022-07-03T11:46:48;22.00;63.90
15983;DHT22;14442;50.196;8.096;2022-07-03T11:49:17;22.00;64.00
15983;DHT22;14442;50.196;8.096;2022-07-03T11:51:55;22.00;63.90
15983;DHT22;14442;50.196;8.096;2022-07-03T11:54:22;22.00;63.70
15983;DHT22;14442;50.196;8.096;2022-07-03T11:56:49;22.00;63.70
15983;DHT22;14442;50.196;8.096;2022-07-03T11:59:17;22.00;63.70
15983;DHT22;14442;50.196;8.096;2022-07-03T12:01:43;22.00;63.70
15983;DHT22;14442;50.196;8.096;2022-07-03T12:04:12;22.00;63.70
15983;DHT22;14442;50.196;8.096;2022-07-03T12:06:42;22.10;63.80
15983;DHT22;14442;50.196;8.096;2022-07-03T12:09:15;22.10;63.80
15983;DHT22;14442;50.196;8.096;2022-07-03T12:11:52;22.10;63.80
15983;DHT22;14442;50.196;8.096;2022-07-03T12:14:36;22.10;63.60
15983;DHT22;14442;50.196;8.096;2022-07-03T12:17:04;22.20;63.70
15983;DHT22;14442;50.196;8.096;2022-07-03T12:19:31;22.10;63.60
15983;DHT22;14442;50.196;8.096;2022-07-03T12:21:59;22.20;63.70
15983;DHT22;14442;50.196;8.096;2022-07-03T12:24:26;22.20;63.60
15983;DHT22;14442;50.196;8.096;2022-07-03T12:26:53;22.20;63.90
15983;DHT22;14442;50.196;8.096;2022-07-03T12:29:20;22.30;63.80
15983;DHT22;14442;50.196;8.096;2022-07-03T12:31:48;22.30;63.60
15983;DHT22;14442;50.196;8.096;2022-07-03T12:34:16;22.30;63.60
15983;DHT22;14442;50.196;8.096;2022-07-03T12:36:54;22.30;63.60
15983;DHT22;14442;50.196;8.096;2022-07-03T12:39:22;22.30;63.50
15983;DHT22;14442;50.196;8.096;2022-07-03T12:41:49;22.40;63.50
15983;DHT22;14442;50.196;8.096;2022-07-03T12:44:16;22.40;63.40
15983;DHT22;14442;50.196;8.096;2022-07-03T12:46:46;22.40;63.40
15983;DHT22;14442;50.196;8.096;2022-07-03T12:49:13;22.40;63.40
15983;DHT22;14442;50.196;8.096;2022-07-03T12:51:42;22.50;63.40
15983;DHT22;14442;50.196;8.096;2022-07-03T12:54:11;22.50;63.30
15983;DHT22;14442;50.196;8.096;2022-07-03T12:56:39;22.50;63.30
15983;DHT22;14442;50.196;8.096;2022-07-03T12:59:07;22.50;63.30
15983;DHT22;14442;50.196;8.096;2022-07-03T13:01:42;22.60;63.40
15983;DHT22;14442;50.196;8.096;2022-07-03T13:04:10;22.60;63.40
15983;DHT22;14442;50.196;8.096;2022-07-03T13:06:40;22.60;63.40
15983;DHT22;14442;50.196;8.096;2022-07-03T13:09:06;22.60;63.40
15983;DHT22;14442;50.196;8.096;2022-07-03T13:11:35;22.60;63.30
15983;DHT22;14442;50.196;8.096;2022-07-03T13:14:08;22.60;63.20
15983;DHT22;14442;50.196;8.096;2022-07-03T13:16:37;22.70;63.30
15983;DHT22;14442;50.196;8.096;2022-07-03T13:19:05;22.70;63.30
15983;DHT22;14442;50.196;8.096;2022-07-03T13:21:32;22.70;63.30
15983;DHT22;14442;50.196;8.096;2022-07-03T13:23:59;22.70;63.30
15983;DHT22;14442;50.196;8.096;2022-07-03T13:26:25;22.70;63.20
15983;DHT22;14442;50.196;8.096;2022-07-03T13:28:53;22.70;63.20
15983;DHT22;14442;50.196;8.096;2022-07-03T13:31:21;22.70;63.20
15983;DHT22;14442;50.196;8.096;2022-07-03T13:33:47;22.70;63.30
15983;DHT22;14442;50.196;8.096;2022-07-03T13:36:14;22.70;63.40
15983;DHT22;14442;50.196;8.096;2022-07-03T13:38:43;22.70;63.40
15983;DHT22;14442;50.196;8.096;2022-07-03T13:41:10;22.80;63.40
15983;DHT22;14442;50.196;8.096;2022-07-03T13:43:37;22.80;63.30
15983;DHT22;14442;50.196;8.096;2022-07-03T13:46:03;22.80;63.40
15983;DHT22;14442;50.196;8.096;2022-07-03T13:48:32;22.80;63.20
15983;DHT22;14442;50.196;8.096;2022-07-03T13:50:58;22.90;63.20
15983;DHT22;14442;50.196;8.096;2022-07-03T13:53:25;22.90;63.30
15983;DHT22;14442;50.196;8.096;2022-07-03T13:55:54;22.90;63.20
15983;DHT22;14442;50.196;8.096;2022-07-03T13:58:21;22.90;63.30
15983;DHT22;14442;50.196;8.096;2022-07-03T14:00:47;22.90;63.10
15983;DHT22;14442;50.196;8.096;2022-07-03T14:03:14;23.00;63.00
15983;DHT22;14442;50.196;8.096;2022-07-03T14:05:42;23.00;63.30
15983;DHT22;14442;50.196;8.096;2022-07-03T14:08:09;23.00;63.00
15983;DHT22;14442;50.196;8.096;2022-07-03T14:10:37;23.00;63.10
15983;DHT22;14442;50.196;8.096;2022-07-03T14:13:04;23.00;63.00
15983;DHT22;14442;50.196;8.096;2022-07-03T14:15:32;23.00;63.00
15983;DHT22;14442;50.196;8.096;2022-07-03T14:17:59;23.00;63.00
15983;DHT22;14442;50.196;8.096;2022-07-03T14:20:27;23.10;63.00
15983;DHT22;14442;50.196;8.096;2022-07-03T14:22:55;23.10;62.90
15983;DHT22;14442;50.196;8.096;2022-07-03T14:25:22;23.10;62.80
15983;DHT22;14442;50.196;8.096;2022-07-03T14:27:48;23.10;62.90
15983;DHT22;14442;50.196;8.096;2022-07-03T14:30:33;23.20;62.90
15983;DHT22;14442;50.196;8.096;2022-07-03T14:33:17;23.00;62.80
15983;DHT22;14442;50.196;8.096;2022-07-03T14:35:44;23.00;63.10
15983;DHT22;14442;50.196;8.096;2022-07-03T14:38:12;23.00;63.00
15983;DHT22;14442;50.196;8.096;2022-07-03T14:40:39;23.00;63.00
15983;DHT22;14442;50.196;8.096;2022-07-03T14:43:06;22.90;63.00
15983;DHT22;14442;50.196;8.096;2022-07-03T14:45:33;23.00;63.00
15983;DHT22;14442;50.196;8.096;2022-07-03T14:47:59;23.00;63.10
15983;DHT22;14442;50.196;8.096;2022-07-03T14:50:26;23.00;63.20
15983;DHT22;14442;50.196;8.096;2022-07-03T14:52:53;23.00;63.20
15983;DHT22;14442;50.196;8.096;2022-07-03T14:55:21;23.00;63.20
15983;DHT22;14442;50.196;8.096;2022-07-03T14:57:53;23.00;63.10
15983;DHT22;14442;50.196;8.096;2022-07-03T15:00:26;23.00;63.10
15983;DHT22;14442;50.196;8.096;2022-07-03T15:03:03;23.00;63.00
15983;DHT22;14442;50.196;8.096;2022-07-03T15:05:32;22.90;63.00
15983;DHT22;14442;50.196;8.096;2022-07-03T15:08:19;22.90;63.10
15983;DHT22;14442;50.196;8.096;2022-07-03T15:10:49;22.90;63.20
15983;DHT22;14442;50.196;8.096;2022-07-03T15:13:15;22.90;63.20
15983;DHT22;14442;50.196;8.096;2022-07-03T15:15:46;22.90;63.20
15983;DHT22;14442;50.196;8.096;2022-07-03T15:18:16;22.90;63.20
15983;DHT22;14442;50.196;8.096;2022-07-03T15:20:44;22.90;63.10
15983;DHT22;14442;50.196;8.096;2022-07-03T15:23:11;22.90;63.10
15983;DHT22;14442;50.196;8.096;2022-07-03T15:25:38;22.90;63.10
15983;DHT22;14442;50.196;8.096;2022-07-03T15:28:10;22.90;63.10
15983;DHT22;14442;50.196;8.096;2022-07-03T15:30:37;22.90;63.10
15983;DHT22;14442;50.196;8.096;2022-07-03T15:33:04;22.90;63.10
15983;DHT22;14442;50.196;8.096;2022-07-03T15:35:33;22.90;63.10
15983;DHT22;14442;50.196;8.096;2022-07-03T15:38:11;22.90;63.10
15983;DHT22;14442;50.196;8.096;2022-07-03T15:40:46;22.80;63.00
15983;DHT22;14442;50.196;8.096;2022-07-03T15:43:36;22.80;63.00
15983;DHT22;14442;50.196;8.096;2022-07-03T15:46:19;22.80;63.00
15983;DHT22;14442;50.196;8.096;2022-07-03T15:48:55;22.80;63.00
15983;DHT22;14442;50.196;8.096;2022-07-03T15:51:36;22.80;63.20